sensor_id;sensor_type;location;lat;lon;timestamp;P1;durP1;ratioP1;P2;durP2;ratioP2
65230;SDS011;51813;40.666;16.602;2024-02-14T00:00:03;4.85;;;3.15;;
65230;SDS011;51813;40.666;16.602;2024-02-14T00:02:29;4.72;;;3.20;;
65230;SDS011;51813;40.666;16.602;2024-02-14T00:04:55;5.65;;;2.95;;
65230;SDS011;51813;40.666;16.602;2024-02-14T00:07:20;5.47;;;3.25;;
65230;SDS011;51813;40.666;16.602;2024-02-14T00:09:47;5.93;;;2.70;;
65230;SDS011;51813;40.666;16.602;2024-02-14T00:12:13;5.10;;;2.85;;
65230;SDS011;51813;40.666;16.602;2024-02-14T00:14:39;4.40;;;3.03;;
65230;SDS011;51813;40.666;16.602;2024-02-14T00:17:04;5.40;;;3.05;;
65230;SDS011;51813;40.666;16.602;2024-02-14T00:19:31;4.38;;;2.80;;
65230;SDS011;51813;40.666;16.602;2024-02-14T00:21:57;4.95;;;2.90;;
65230;SDS011;51813;40.666;16.602;2024-02-14T00:24:22;4.25;;;2.95;;
65230;SDS011;51813;40.666;16.602;2024-02-14T00:26:49;6.63;;;2.85;;
65230;SDS011;51813;40.666;16.602;2024-02-14T00:29:15;4.78;;;2.92;;
65230;SDS011;51813;40.666;16.602;2024-02-14T00:31:41;5.35;;;3.10;;
65230;SDS011;51813;40.666;16.602;2024-02-14T00:34:09;5.20;;;3.00;;
65230;SDS011;51813;40.666;16.602;2024-02-14T00:36:35;4.60;;;3.33;;
65230;SDS011;51813;40.666;16.602;2024-02-14T00:39:01;4.93;;;2.60;;
65230;SDS011;51813;40.666;16.602;2024-02-14T00:41:27;4.97;;;3.08;;
65230;SDS011;51813;40.666;16.602;2024-02-14T00:43:55;5.22;;;3.28;;
65230;SDS011;51813;40.666;16.602;2024-02-14T00:46:21;4.40;;;2.88;;
65230;SDS011;51813;40.666;16.602;2024-02-14T00:48:47;6.55;;;3.58;;
65230;SDS011;51813;40.666;16.602;2024-02-14T00:51:13;5.30;;;3.00;;
65230;SDS011;51813;40.666;16.602;2024-02-14T00:53:38;4.80;;;2.65;;
65230;SDS011;51813;40.666;16.602;2024-02-14T00:56:04;4.78;;;2.90;;
65230;SDS011;51813;40.666;16.602;2024-02-14T00:58:30;5.28;;;2.70;;
65230;SDS011;51813;40.666;16.602;2024-02-14T01:00:56;6.07;;;3.13;;
65230;SDS011;51813;40.666;16.602;2024-02-14T01:03:22;4.10;;;2.30;;
65230;SDS011;51813;40.666;16.602;2024-02-14T01:05:48;6.47;;;3.63;;
65230;SDS011;51813;40.666;16.602;2024-02-14T01:08:14;4.32;;;2.80;;
65230;SDS011;51813;40.666;16.602;2024-02-14T01:10:39;4.97;;;3.13;;
65230;SDS011;51813;40.666;16.602;2024-02-14T01:13:05;5.68;;;2.92;;
65230;SDS011;51813;40.666;16.602;2024-02-14T01:15:31;4.70;;;2.95;;
65230;SDS011;51813;40.666;16.602;2024-02-14T01:17:58;4.47;;;2.88;;
65230;SDS011;51813;40.666;16.602;2024-02-14T01:20:24;5.50;;;3.35;;
65230;SDS011;51813;40.666;16.602;2024-02-14T01:22:49;5.38;;;3.13;;
65230;SDS011;51813;40.666;16.602;2024-02-14T01:25:15;4.88;;;3.03;;
65230;SDS011;51813;40.666;16.602;2024-02-14T01:27:41;3.63;;;2.50;;
65230;SDS011;51813;40.666;16.602;2024-02-14T01:30:08;4.22;;;2.90;;
65230;SDS011;51813;40.666;16.602;2024-02-14T01:32:34;6.30;;;2.95;;
65230;SDS011;51813;40.666;16.602;2024-02-14T01:35:00;5.05;;;3.25;;
65230;SDS011;51813;40.666;16.602;2024-02-14T01:37:26;7.00;;;3.47;;
65230;SDS011;51813;40.666;16.602;2024-02-14T01:39:54;5.97;;;3.47;;
65230;SDS011;51813;40.666;16.602;2024-02-14T01:42:19;6.15;;;2.90;;
65230;SDS011;51813;40.666;16.602;2024-02-14T01:44:45;4.57;;;2.50;;
65230;SDS011;51813;40.666;16.602;2024-02-14T01:47:11;4.70;;;3.35;;
65230;SDS011;51813;40.666;16.602;2024-02-14T01:49:37;4.90;;;2.80;;
65230;SDS011;51813;40.666;16.602;2024-02-14T01:52:04;5.45;;;2.60;;
65230;SDS011;51813;40.666;16.602;2024-02-14T01:54:30;5.03;;;2.47;;
65230;SDS011;51813;40.666;16.602;2024-02-14T01:56:57;4.78;;;2.55;;
65230;SDS011;51813;40.666;16.602;2024-02-14T01:59:26;3.95;;;2.38;;
65230;SDS011;51813;40.666;16.602;2024-02-14T02:01:52;4.13;;;2.63;;
65230;SDS011;51813;40.666;16.602;2024-02-14T02:04:18;4.38;;;2.28;;
65230;SDS011;51813;40.666;16.602;2024-02-14T02:06:44;4.13;;;2.22;;
65230;SDS011;51813;40.666;16.602;2024-02-14T02:09:10;4.30;;;2.28;;
65230;SDS011;51813;40.666;16.602;2024-02-14T02:11:48;4.30;;;1.95;;
65230;SDS011;51813;40.666;16.602;2024-02-14T02:14:14;4.13;;;2.28;;
65230;SDS011;51813;40.666;16.602;2024-02-14T02:16:41;3.97;;;1.90;;
65230;SDS011;51813;40.666;16.602;2024-02-14T02:19:07;2.92;;;1.70;;
65230;SDS011;51813;40.666;16.602;2024-02-14T02:21:34;3.33;;;1.90;;
65230;SDS011;51813;40.666;16.602;2024-02-14T02:24:01;3.55;;;1.80;;
65230;SDS011;51813;40.666;16.602;2024-02-14T02:26:27;3.58;;;1.98;;
65230;SDS011;51813;40.666;16.602;2024-02-14T02:28:53;3.13;;;1.73;;
65230;SDS011;51813;40.666;16.602;2024-02-14T02:31:19;4.10;;;1.60;;
65230;SDS011;51813;40.666;16.602;2024-02-14T02:33:45;3.67;;;1.70;;
65230;SDS011;51813;40.666;16.602;2024-02-14T02:36:11;3.78;;;2.00;;
65230;SDS011;51813;40.666;16.602;2024-02-14T02:38:37;3.88;;;1.52;;
65230;SDS011;51813;40.666;16.602;2024-02-14T02:41:03;3.83;;;1.80;;
65230;SDS011;51813;40.666;16.602;2024-02-14T02:43:32;3.78;;;1.70;;
65230;SDS011;51813;40.666;16.602;2024-02-14T02:45:58;2.88;;;1.50;;
65230;SDS011;51813;40.666;16.602;2024-02-14T02:48:24;3.08;;;1.83;;
65230;SDS011;51813;40.666;16.602;2024-02-14T02:50:50;3.25;;;1.80;;
65230;SDS011;51813;40.666;16.602;2024-02-14T02:53:17;3.47;;;1.60;;
65230;SDS011;51813;40.666;16.602;2024-02-14T02:55:43;2.40;;;1.25;;
65230;SDS011;51813;40.666;16.602;2024-02-14T02:58:09;3.22;;;1.50;;
65230;SDS011;51813;40.666;16.602;2024-02-14T03:00:35;2.80;;;1.52;;
65230;SDS011;51813;40.666;16.602;2024-02-14T03:03:00;2.80;;;1.40;;
65230;SDS011;51813;40.666;16.602;2024-02-14T03:05:29;2.80;;;1.60;;
65230;SDS011;51813;40.666;16.602;2024-02-14T03:07:58;3.35;;;1.50;;
65230;SDS011;51813;40.666;16.602;2024-02-14T03:10:24;3.60;;;1.60;;
65230;SDS011;51813;40.666;16.602;2024-02-14T03:12:50;2.83;;;1.40;;
65230;SDS011;51813;40.666;16.602;2024-02-14T03:15:17;3.15;;;1.40;;
65230;SDS011;51813;40.666;16.602;2024-02-14T03:17:43;3.10;;;1.30;;
65230;SDS011;51813;40.666;16.602;2024-02-14T03:20:10;4.20;;;1.65;;
65230;SDS011;51813;40.666;16.602;2024-02-14T03:22:39;2.85;;;1.55;;
65230;SDS011;51813;40.666;16.602;2024-02-14T03:27:37;4.00;;;1.77;;
65230;SDS011;51813;40.666;16.602;2024-02-14T03:30:03;3.50;;;1.70;;
65230;SDS011;51813;40.666;16.602;2024-02-14T03:32:29;3.10;;;1.55;;
65230;SDS011;51813;40.666;16.602;2024-02-14T03:34:55;2.50;;;1.30;;
65230;SDS011;51813;40.666;16.602;2024-02-14T03:37:21;3.95;;;1.50;;
65230;SDS011;51813;40.666;16.602;2024-02-14T03:39:46;3.92;;;1.30;;
65230;SDS011;51813;40.666;16.602;2024-02-14T03:42:12;2.35;;;1.35;;
65230;SDS011;51813;40.666;16.602;2024-02-14T03:44:38;3.60;;;1.40;;
65230;SDS011;51813;40.666;16.602;2024-02-14T03:47:05;2.97;;;1.17;;
65230;SDS011;51813;40.666;16.602;2024-02-14T03:49:31;3.28;;;1.50;;
65230;SDS011;51813;40.666;16.602;2024-02-14T03:51:57;4.15;;;1.40;;
65230;SDS011;51813;40.666;16.602;2024-02-14T03:54:22;2.75;;;1.50;;
65230;SDS011;51813;40.666;16.602;2024-02-14T03:56:48;3.35;;;1.40;;
65230;SDS011;51813;40.666;16.602;2024-02-14T03:59:14;2.35;;;1.30;;
65230;SDS011;51813;40.666;16.602;2024-02-14T04:01:45;3.30;;;1.40;;
65230;SDS011;51813;40.666;16.602;2024-02-14T04:04:11;2.33;;;1.10;;
65230;SDS011;51813;40.666;16.602;2024-02-14T04:06:37;3.13;;;1.35;;
65230;SDS011;51813;40.666;16.602;2024-02-14T04:09:02;3.00;;;1.38;;
65230;SDS011;51813;40.666;16.602;2024-02-14T04:11:29;2.80;;;1.50;;
65230;SDS011;51813;40.666;16.602;2024-02-14T04:13:55;2.28;;;1.25;;
65230;SDS011;51813;40.666;16.602;2024-02-14T04:16:20;3.28;;;1.40;;
65230;SDS011;51813;40.666;16.602;2024-02-14T04:18:46;3.55;;;1.60;;
65230;SDS011;51813;40.666;16.602;2024-02-14T04:21:12;2.78;;;1.27;;
65230;SDS011;51813;40.666;16.602;2024-02-14T04:23:38;2.33;;;1.45;;
65230;SDS011;51813;40.666;16.602;2024-02-14T04:26:05;3.47;;;1.55;;
65230;SDS011;51813;40.666;16.602;2024-02-14T04:28:31;2.22;;;1.30;;
65230;SDS011;51813;40.666;16.602;2024-02-14T04:30:56;2.85;;;1.35;;
65230;SDS011;51813;40.666;16.602;2024-02-14T04:33:22;3.38;;;1.65;;
65230;SDS011;51813;40.666;16.602;2024-02-14T04:35:49;3.10;;;1.50;;
65230;SDS011;51813;40.666;16.602;2024-02-14T04:38:15;2.60;;;1.52;;
65230;SDS011;51813;40.666;16.602;2024-02-14T04:40:41;2.80;;;1.20;;
65230;SDS011;51813;40.666;16.602;2024-02-14T04:43:07;2.92;;;1.42;;
65230;SDS011;51813;40.666;16.602;2024-02-14T04:45:32;3.38;;;1.40;;
65230;SDS011;51813;40.666;16.602;2024-02-14T04:47:59;2.22;;;1.27;;
65230;SDS011;51813;40.666;16.602;2024-02-14T04:50:25;3.47;;;1.70;;
65230;SDS011;51813;40.666;16.602;2024-02-14T04:52:51;2.40;;;1.30;;
65230;SDS011;51813;40.666;16.602;2024-02-14T04:55:16;3.65;;;1.40;;
65230;SDS011;51813;40.666;16.602;2024-02-14T04:57:42;2.55;;;1.30;;
65230;SDS011;51813;40.666;16.602;2024-02-14T05:00:08;3.17;;;1.40;;
65230;SDS011;51813;40.666;16.602;2024-02-14T05:02:35;2.50;;;1.30;;
65230;SDS011;51813;40.666;16.602;2024-02-14T05:05:02;2.78;;;1.40;;
65230;SDS011;51813;40.666;16.602;2024-02-14T05:07:28;3.22;;;1.30;;
65230;SDS011;51813;40.666;16.602;2024-02-14T05:09:54;2.90;;;1.30;;
65230;SDS011;51813;40.666;16.602;2024-02-14T05:12:21;3.50;;;1.40;;
65230;SDS011;51813;40.666;16.602;2024-02-14T05:14:47;2.83;;;1.48;;
65230;SDS011;51813;40.666;16.602;2024-02-14T05:17:13;3.17;;;1.40;;
65230;SDS011;51813;40.666;16.602;2024-02-14T05:19:41;3.15;;;1.33;;
65230;SDS011;51813;40.666;16.602;2024-02-14T05:22:08;4.05;;;1.33;;
65230;SDS011;51813;40.666;16.602;2024-02-14T05:24:33;4.07;;;1.30;;
65230;SDS011;51813;40.666;16.602;2024-02-14T05:27:02;2.53;;;1.35;;
65230;SDS011;51813;40.666;16.602;2024-02-14T05:29:29;2.38;;;1.40;;
65230;SDS011;51813;40.666;16.602;2024-02-14T05:31:54;3.17;;;1.25;;
65230;SDS011;51813;40.666;16.602;2024-02-14T05:34:20;3.63;;;1.30;;
65230;SDS011;51813;40.666;16.602;2024-02-14T05:36:46;1.70;;;1.20;;
65230;SDS011;51813;40.666;16.602;2024-02-14T05:39:12;2.75;;;1.30;;
65230;SDS011;51813;40.666;16.602;2024-02-14T05:41:39;3.33;;;1.20;;
65230;SDS011;51813;40.666;16.602;2024-02-14T05:44:05;4.68;;;1.50;;
65230;SDS011;51813;40.666;16.602;2024-02-14T05:46:31;3.63;;;1.30;;
65230;SDS011;51813;40.666;16.602;2024-02-14T05:48:56;2.58;;;1.38;;
65230;SDS011;51813;40.666;16.602;2024-02-14T05:51:23;2.35;;;1.20;;
65230;SDS011;51813;40.666;16.602;2024-02-14T05:53:49;4.00;;;1.30;;
65230;SDS011;51813;40.666;16.602;2024-02-14T05:56:14;3.95;;;1.40;;
65230;SDS011;51813;40.666;16.602;2024-02-14T05:58:40;2.47;;;1.27;;
65230;SDS011;51813;40.666;16.602;2024-02-14T06:01:06;3.47;;;1.25;;
65230;SDS011;51813;40.666;16.602;2024-02-14T06:03:31;3.03;;;1.17;;
65230;SDS011;51813;40.666;16.602;2024-02-14T06:05:58;2.47;;;1.23;;
65230;SDS011;51813;40.666;16.602;2024-02-14T06:08:23;2.85;;;1.38;;
65230;SDS011;51813;40.666;16.602;2024-02-14T06:10:49;2.78;;;1.27;;
65230;SDS011;51813;40.666;16.602;2024-02-14T06:13:15;4.05;;;1.20;;
65230;SDS011;51813;40.666;16.602;2024-02-14T06:15:41;2.70;;;1.23;;
65230;SDS011;51813;40.666;16.602;2024-02-14T06:18:06;2.20;;;1.10;;
65230;SDS011;51813;40.666;16.602;2024-02-14T06:20:32;3.75;;;1.27;;
65230;SDS011;51813;40.666;16.602;2024-02-14T06:22:58;2.13;;;1.20;;
65230;SDS011;51813;40.666;16.602;2024-02-14T06:25:23;2.40;;;1.23;;
65230;SDS011;51813;40.666;16.602;2024-02-14T06:27:49;2.17;;;1.20;;
65230;SDS011;51813;40.666;16.602;2024-02-14T06:30:15;2.88;;;1.50;;
65230;SDS011;51813;40.666;16.602;2024-02-14T06:32:42;2.90;;;1.20;;
65230;SDS011;51813;40.666;16.602;2024-02-14T06:35:07;2.53;;;1.20;;
65230;SDS011;51813;40.666;16.602;2024-02-14T06:37:33;3.55;;;1.30;;
65230;SDS011;51813;40.666;16.602;2024-02-14T06:39:59;2.72;;;1.20;;
65230;SDS011;51813;40.666;16.602;2024-02-14T06:42:24;1.90;;;1.00;;
65230;SDS011;51813;40.666;16.602;2024-02-14T06:44:51;2.63;;;1.08;;
65230;SDS011;51813;40.666;16.602;2024-02-14T06:47:17;2.70;;;1.17;;
65230;SDS011;51813;40.666;16.602;2024-02-14T06:49:43;2.83;;;1.40;;
65230;SDS011;51813;40.666;16.602;2024-02-14T06:52:09;3.28;;;1.20;;
65230;SDS011;51813;40.666;16.602;2024-02-14T06:54:34;2.78;;;1.40;;
65230;SDS011;51813;40.666;16.602;2024-02-14T06:57:00;3.17;;;1.10;;
65230;SDS011;51813;40.666;16.602;2024-02-14T06:59:26;3.08;;;1.30;;
65230;SDS011;51813;40.666;16.602;2024-02-14T07:01:52;2.30;;;1.38;;
65230;SDS011;51813;40.666;16.602;2024-02-14T07:04:20;2.30;;;1.10;;
65230;SDS011;51813;40.666;16.602;2024-02-14T07:06:53;4.93;;;1.38;;
65230;SDS011;51813;40.666;16.602;2024-02-14T07:09:19;2.30;;;1.08;;
65230;SDS011;51813;40.666;16.602;2024-02-14T07:11:45;2.15;;;1.10;;
65230;SDS011;51813;40.666;16.602;2024-02-14T07:14:11;3.13;;;1.80;;
65230;SDS011;51813;40.666;16.602;2024-02-14T07:16:36;2.25;;;1.10;;
65230;SDS011;51813;40.666;16.602;2024-02-14T07:19:02;2.60;;;1.40;;
65230;SDS011;51813;40.666;16.602;2024-02-14T07:21:28;2.45;;;1.52;;
65230;SDS011;51813;40.666;16.602;2024-02-14T07:23:54;1.95;;;1.10;;
65230;SDS011;51813;40.666;16.602;2024-02-14T07:26:19;2.15;;;1.10;;
65230;SDS011;51813;40.666;16.602;2024-02-14T07:28:45;2.20;;;1.30;;
65230;SDS011;51813;40.666;16.602;2024-02-14T07:31:11;3.67;;;1.33;;
65230;SDS011;51813;40.666;16.602;2024-02-14T07:33:37;3.63;;;1.15;;
65230;SDS011;51813;40.666;16.602;2024-02-14T07:36:02;2.70;;;1.13;;
65230;SDS011;51813;40.666;16.602;2024-02-14T07:38:28;2.40;;;1.20;;
65230;SDS011;51813;40.666;16.602;2024-02-14T07:40:54;4.40;;;1.55;;
65230;SDS011;51813;40.666;16.602;2024-02-14T07:43:19;3.78;;;1.50;;
65230;SDS011;51813;40.666;16.602;2024-02-14T07:45:45;3.28;;;1.40;;
65230;SDS011;51813;40.666;16.602;2024-02-14T07:48:11;2.35;;;1.10;;
65230;SDS011;51813;40.666;16.602;2024-02-14T07:50:36;3.13;;;1.23;;
65230;SDS011;51813;40.666;16.602;2024-02-14T07:53:02;2.75;;;1.10;;
65230;SDS011;51813;40.666;16.602;2024-02-14T07:55:28;2.08;;;1.15;;
65230;SDS011;51813;40.666;16.602;2024-02-14T07:57:54;2.30;;;1.27;;
65230;SDS011;51813;40.666;16.602;2024-02-14T08:00:19;3.15;;;1.58;;
65230;SDS011;51813;40.666;16.602;2024-02-14T08:02:50;3.33;;;1.13;;
65230;SDS011;51813;40.666;16.602;2024-02-14T08:05:16;3.75;;;1.23;;
65230;SDS011;51813;40.666;16.602;2024-02-14T08:07:42;3.65;;;1.27;;
65230;SDS011;51813;40.666;16.602;2024-02-14T08:10:10;3.00;;;1.25;;
65230;SDS011;51813;40.666;16.602;2024-02-14T08:12:35;3.15;;;1.67;;
65230;SDS011;51813;40.666;16.602;2024-02-14T08:15:01;2.47;;;1.30;;
65230;SDS011;51813;40.666;16.602;2024-02-14T08:17:29;2.47;;;1.30;;
65230;SDS011;51813;40.666;16.602;2024-02-14T08:19:55;5.05;;;1.33;;
65230;SDS011;51813;40.666;16.602;2024-02-14T08:22:21;3.47;;;1.20;;
65230;SDS011;51813;40.666;16.602;2024-02-14T08:24:46;2.58;;;1.30;;
65230;SDS011;51813;40.666;16.602;2024-02-14T08:27:12;4.32;;;1.65;;
65230;SDS011;51813;40.666;16.602;2024-02-14T08:29:38;3.25;;;1.60;;
65230;SDS011;51813;40.666;16.602;2024-02-14T08:32:03;3.35;;;1.40;;
65230;SDS011;51813;40.666;16.602;2024-02-14T08:34:30;3.13;;;1.52;;
65230;SDS011;51813;40.666;16.602;2024-02-14T08:36:55;2.85;;;1.35;;
65230;SDS011;51813;40.666;16.602;2024-02-14T08:39:21;3.67;;;1.38;;
65230;SDS011;51813;40.666;16.602;2024-02-14T08:41:47;4.10;;;1.50;;
65230;SDS011;51813;40.666;16.602;2024-02-14T08:44:13;3.20;;;1.33;;
65230;SDS011;51813;40.666;16.602;2024-02-14T08:46:39;4.85;;;1.50;;
65230;SDS011;51813;40.666;16.602;2024-02-14T08:49:07;3.20;;;1.30;;
65230;SDS011;51813;40.666;16.602;2024-02-14T08:51:37;2.58;;;1.40;;
65230;SDS011;51813;40.666;16.602;2024-02-14T08:54:03;4.57;;;1.70;;
65230;SDS011;51813;40.666;16.602;2024-02-14T08:56:33;5.03;;;1.52;;
65230;SDS011;51813;40.666;16.602;2024-02-14T08:59:02;2.58;;;1.20;;
65230;SDS011;51813;40.666;16.602;2024-02-14T09:01:29;4.13;;;1.42;;
65230;SDS011;51813;40.666;16.602;2024-02-14T09:03:55;4.07;;;1.50;;
65230;SDS011;51813;40.666;16.602;2024-02-14T09:06:21;3.85;;;1.20;;
65230;SDS011;51813;40.666;16.602;2024-02-14T09:08:47;3.35;;;1.35;;
65230;SDS011;51813;40.666;16.602;2024-02-14T09:11:13;2.20;;;1.20;;
65230;SDS011;51813;40.666;16.602;2024-02-14T09:13:39;3.15;;;1.50;;
65230;SDS011;51813;40.666;16.602;2024-02-14T09:16:08;3.00;;;1.50;;
65230;SDS011;51813;40.666;16.602;2024-02-14T09:18:35;3.67;;;1.30;;
65230;SDS011;51813;40.666;16.602;2024-02-14T09:21:01;3.15;;;1.27;;
65230;SDS011;51813;40.666;16.602;2024-02-14T09:23:28;4.35;;;1.60;;
65230;SDS011;51813;40.666;16.602;2024-02-14T09:25:55;3.10;;;1.50;;
65230;SDS011;51813;40.666;16.602;2024-02-14T09:28:25;2.65;;;1.33;;
65230;SDS011;51813;40.666;16.602;2024-02-14T09:30:50;4.30;;;1.80;;
65230;SDS011;51813;40.666;16.602;2024-02-14T09:33:16;3.60;;;1.60;;
65230;SDS011;51813;40.666;16.602;2024-02-14T09:35:42;3.78;;;1.40;;
65230;SDS011;51813;40.666;16.602;2024-02-14T09:38:26;3.20;;;1.30;;
65230;SDS011;51813;40.666;16.602;2024-02-14T09:40:55;3.45;;;1.40;;
65230;SDS011;51813;40.666;16.602;2024-02-14T09:43:31;3.15;;;1.40;;
65230;SDS011;51813;40.666;16.602;2024-02-14T09:46:01;4.57;;;1.35;;
65230;SDS011;51813;40.666;16.602;2024-02-14T09:48:28;3.38;;;1.50;;
65230;SDS011;51813;40.666;16.602;2024-02-14T09:50:55;4.85;;;1.60;;
65230;SDS011;51813;40.666;16.602;2024-02-14T09:53:22;3.38;;;1.80;;
65230;SDS011;51813;40.666;16.602;2024-02-14T09:55:48;3.38;;;1.60;;
65230;SDS011;51813;40.666;16.602;2024-02-14T09:58:15;3.22;;;1.58;;
65230;SDS011;51813;40.666;16.602;2024-02-14T10:00:42;3.10;;;1.17;;
65230;SDS011;51813;40.666;16.602;2024-02-14T10:03:08;3.95;;;1.65;;
65230;SDS011;51813;40.666;16.602;2024-02-14T10:05:34;4.70;;;1.70;;
65230;SDS011;51813;40.666;16.602;2024-02-14T10:08:00;3.78;;;1.48;;
65230;SDS011;51813;40.666;16.602;2024-02-14T10:10:26;6.80;;;1.60;;
65230;SDS011;51813;40.666;16.602;2024-02-14T10:12:56;5.35;;;1.60;;
65230;SDS011;51813;40.666;16.602;2024-02-14T10:15:23;4.77;;;1.70;;
65230;SDS011;51813;40.666;16.602;2024-02-14T10:17:48;4.20;;;1.50;;
65230;SDS011;51813;40.666;16.602;2024-02-14T10:20:17;4.85;;;1.40;;
65230;SDS011;51813;40.666;16.602;2024-02-14T10:22:43;3.97;;;1.58;;
65230;SDS011;51813;40.666;16.602;2024-02-14T10:25:09;2.92;;;1.40;;
65230;SDS011;51813;40.666;16.602;2024-02-14T10:27:38;3.28;;;1.42;;
65230;SDS011;51813;40.666;16.602;2024-02-14T10:30:05;2.85;;;1.40;;
65230;SDS011;51813;40.666;16.602;2024-02-14T10:32:39;3.80;;;1.53;;
65230;SDS011;51813;40.666;16.602;2024-02-14T10:35:05;5.47;;;2.25;;
65230;SDS011;51813;40.666;16.602;2024-02-14T10:37:37;4.85;;;1.50;;
65230;SDS011;51813;40.666;16.602;2024-02-14T10:40:03;5.35;;;1.50;;
65230;SDS011;51813;40.666;16.602;2024-02-14T10:42:32;5.43;;;1.63;;
65230;SDS011;51813;40.666;16.602;2024-02-14T10:44:59;3.47;;;1.38;;
65230;SDS011;51813;40.666;16.602;2024-02-14T10:47:29;4.10;;;1.45;;
65230;SDS011;51813;40.666;16.602;2024-02-14T10:49:58;5.18;;;1.42;;
65230;SDS011;51813;40.666;16.602;2024-02-14T10:52:30;4.32;;;1.50;;
65230;SDS011;51813;40.666;16.602;2024-02-14T10:55:03;4.43;;;1.33;;
65230;SDS011;51813;40.666;16.602;2024-02-14T10:57:30;4.00;;;1.50;;
65230;SDS011;51813;40.666;16.602;2024-02-14T10:59:57;3.97;;;1.60;;
65230;SDS011;51813;40.666;16.602;2024-02-14T11:02:27;3.33;;;1.50;;
65230;SDS011;51813;40.666;16.602;2024-02-14T11:04:55;3.40;;;1.30;;
65230;SDS011;51813;40.666;16.602;2024-02-14T11:07:21;2.60;;;1.58;;
65230;SDS011;51813;40.666;16.602;2024-02-14T11:10:06;3.38;;;1.48;;
65230;SDS011;51813;40.666;16.602;2024-02-14T11:12:35;4.60;;;1.58;;
65230;SDS011;51813;40.666;16.602;2024-02-14T11:15:22;3.22;;;1.27;;
65230;SDS011;51813;40.666;16.602;2024-02-14T11:17:50;3.40;;;1.27;;
65230;SDS011;51813;40.666;16.602;2024-02-14T11:20:19;5.28;;;1.77;;
65230;SDS011;51813;40.666;16.602;2024-02-14T11:22:57;1.92;;;1.17;;
65230;SDS011;51813;40.666;16.602;2024-02-14T11:25:29;4.70;;;1.38;;
65230;SDS011;51813;40.666;16.602;2024-02-14T11:27:56;2.28;;;1.30;;
65230;SDS011;51813;40.666;16.602;2024-02-14T11:30:28;3.70;;;1.73;;
65230;SDS011;51813;40.666;16.602;2024-02-14T11:32:54;2.65;;;1.38;;
65230;SDS011;51813;40.666;16.602;2024-02-14T11:35:20;2.38;;;1.20;;
65230;SDS011;51813;40.666;16.602;2024-02-14T11:37:51;3.30;;;1.40;;
65230;SDS011;51813;40.666;16.602;2024-02-14T11:40:19;3.90;;;1.23;;
65230;SDS011;51813;40.666;16.602;2024-02-14T11:42:45;4.85;;;1.30;;
65230;SDS011;51813;40.666;16.602;2024-02-14T11:45:12;3.03;;;1.40;;
65230;SDS011;51813;40.666;16.602;2024-02-14T11:47:38;4.70;;;2.17;;
65230;SDS011;51813;40.666;16.602;2024-02-14T11:50:04;4.47;;;1.25;;
65230;SDS011;51813;40.666;16.602;2024-02-14T11:52:31;4.05;;;1.50;;
65230;SDS011;51813;40.666;16.602;2024-02-14T11:54:57;4.22;;;1.40;;
65230;SDS011;51813;40.666;16.602;2024-02-14T11:57:25;3.83;;;1.33;;
65230;SDS011;51813;40.666;16.602;2024-02-14T11:59:52;4.45;;;1.35;;
65230;SDS011;51813;40.666;16.602;2024-02-14T12:02:18;2.22;;;1.20;;
65230;SDS011;51813;40.666;16.602;2024-02-14T12:04:45;3.70;;;1.40;;
65230;SDS011;51813;40.666;16.602;2024-02-14T12:07:15;4.88;;;1.58;;
65230;SDS011;51813;40.666;16.602;2024-02-14T12:09:42;3.83;;;1.50;;
65230;SDS011;51813;40.666;16.602;2024-02-14T12:12:08;2.92;;;1.30;;
65230;SDS011;51813;40.666;16.602;2024-02-14T12:14:34;4.72;;;1.13;;
65230;SDS011;51813;40.666;16.602;2024-02-14T12:17:00;3.20;;;1.40;;
65230;SDS011;51813;40.666;16.602;2024-02-14T12:19:28;2.67;;;1.20;;
65230;SDS011;51813;40.666;16.602;2024-02-14T12:21:54;3.78;;;1.45;;
65230;SDS011;51813;40.666;16.602;2024-02-14T12:24:23;2.97;;;1.30;;
65230;SDS011;51813;40.666;16.602;2024-02-14T12:26:52;3.25;;;1.45;;
65230;SDS011;51813;40.666;16.602;2024-02-14T12:29:18;3.72;;;1.33;;
65230;SDS011;51813;40.666;16.602;2024-02-14T12:31:43;3.65;;;1.50;;
65230;SDS011;51813;40.666;16.602;2024-02-14T12:34:10;5.80;;;1.30;;
65230;SDS011;51813;40.666;16.602;2024-02-14T12:36:36;4.40;;;1.88;;
65230;SDS011;51813;40.666;16.602;2024-02-14T12:39:03;3.03;;;1.63;;
65230;SDS011;51813;40.666;16.602;2024-02-14T12:41:29;4.93;;;1.40;;
65230;SDS011;51813;40.666;16.602;2024-02-14T12:43:56;3.17;;;1.35;;
65230;SDS011;51813;40.666;16.602;2024-02-14T12:46:23;4.05;;;1.30;;
65230;SDS011;51813;40.666;16.602;2024-02-14T12:48:48;2.60;;;1.15;;
65230;SDS011;51813;40.666;16.602;2024-02-14T12:51:14;4.15;;;1.35;;
65230;SDS011;51813;40.666;16.602;2024-02-14T12:53:40;3.58;;;1.33;;
65230;SDS011;51813;40.666;16.602;2024-02-14T12:56:07;2.90;;;1.45;;
65230;SDS011;51813;40.666;16.602;2024-02-14T12:58:33;3.05;;;1.50;;
65230;SDS011;51813;40.666;16.602;2024-02-14T13:00:59;2.30;;;1.40;;
65230;SDS011;51813;40.666;16.602;2024-02-14T13:03:26;2.72;;;1.20;;
65230;SDS011;51813;40.666;16.602;2024-02-14T13:05:53;2.97;;;1.05;;
65230;SDS011;51813;40.666;16.602;2024-02-14T13:08:19;2.25;;;1.20;;
65230;SDS011;51813;40.666;16.602;2024-02-14T13:10:45;3.00;;;1.20;;
65230;SDS011;51813;40.666;16.602;2024-02-14T13:13:12;3.72;;;1.40;;
65230;SDS011;51813;40.666;16.602;2024-02-14T13:15:39;2.90;;;1.20;;
65230;SDS011;51813;40.666;16.602;2024-02-14T13:18:05;3.20;;;1.40;;
65230;SDS011;51813;40.666;16.602;2024-02-14T13:20:32;3.65;;;1.40;;
65230;SDS011;51813;40.666;16.602;2024-02-14T13:22:58;2.85;;;1.40;;
65230;SDS011;51813;40.666;16.602;2024-02-14T13:25:24;3.97;;;1.45;;
65230;SDS011;51813;40.666;16.602;2024-02-14T13:27:49;2.97;;;1.60;;
65230;SDS011;51813;40.666;16.602;2024-02-14T13:30:15;2.97;;;1.35;;
65230;SDS011;51813;40.666;16.602;2024-02-14T13:32:41;2.95;;;1.65;;
65230;SDS011;51813;40.666;16.602;2024-02-14T13:35:07;3.13;;;1.40;;
65230;SDS011;51813;40.666;16.602;2024-02-14T13:37:33;4.32;;;1.48;;
65230;SDS011;51813;40.666;16.602;2024-02-14T13:39:59;2.95;;;1.50;;
65230;SDS011;51813;40.666;16.602;2024-02-14T13:42:26;4.53;;;1.63;;
65230;SDS011;51813;40.666;16.602;2024-02-14T13:44:51;3.10;;;1.23;;
65230;SDS011;51813;40.666;16.602;2024-02-14T13:47:19;4.72;;;1.33;;
65230;SDS011;51813;40.666;16.602;2024-02-14T13:49:45;4.03;;;1.52;;
65230;SDS011;51813;40.666;16.602;2024-02-14T13:52:11;4.90;;;1.30;;
65230;SDS011;51813;40.666;16.602;2024-02-14T13:54:37;3.58;;;1.35;;
65230;SDS011;51813;40.666;16.602;2024-02-14T13:57:02;3.25;;;1.60;;
65230;SDS011;51813;40.666;16.602;2024-02-14T13:59:28;3.88;;;1.45;;
65230;SDS011;51813;40.666;16.602;2024-02-14T14:01:54;4.72;;;1.30;;
65230;SDS011;51813;40.666;16.602;2024-02-14T14:04:20;5.90;;;1.20;;
65230;SDS011;51813;40.666;16.602;2024-02-14T14:06:46;2.53;;;1.35;;
65230;SDS011;51813;40.666;16.602;2024-02-14T14:09:13;4.13;;;1.10;;
65230;SDS011;51813;40.666;16.602;2024-02-14T14:11:39;4.32;;;1.30;;
65230;SDS011;51813;40.666;16.602;2024-02-14T14:14:05;2.60;;;1.23;;
65230;SDS011;51813;40.666;16.602;2024-02-14T14:16:31;3.58;;;1.40;;
65230;SDS011;51813;40.666;16.602;2024-02-14T14:19:00;3.53;;;1.40;;
65230;SDS011;51813;40.666;16.602;2024-02-14T14:21:26;2.60;;;1.40;;
65230;SDS011;51813;40.666;16.602;2024-02-14T14:23:52;2.38;;;1.20;;
65230;SDS011;51813;40.666;16.602;2024-02-14T14:26:17;2.60;;;1.30;;
65230;SDS011;51813;40.666;16.602;2024-02-14T14:28:43;2.45;;;1.13;;
65230;SDS011;51813;40.666;16.602;2024-02-14T14:31:09;3.65;;;1.58;;